createdAt,value
2023-04-27T00:02:21.736Z,10.80
2023-04-27T00:04:50.534Z,10.80
2023-04-27T00:07:18.651Z,10.80
2023-04-27T00:09:46.612Z,10.70
2023-04-27T00:12:15.198Z,10.70
2023-04-27T00:14:43.003Z,10.70
2023-04-27T00:17:12.577Z,10.60
2023-04-27T00:19:42.122Z,10.60
2023-04-27T00:22:11.297Z,10.60
2023-04-27T00:24:39.276Z,10.50
2023-04-27T00:27:07.187Z,10.50
2023-04-27T00:29:35.395Z,10.50
2023-04-27T00:32:03.317Z,10.40
2023-04-27T00:34:32.710Z,10.40
2023-04-27T00:37:00.778Z,10.60
2023-04-27T00:39:28.634Z,10.40
2023-04-27T00:41:57.409Z,10.40
2023-04-27T00:44:25.757Z,10.40
2023-04-27T00:46:54.112Z,10.30
2023-04-27T00:49:22.682Z,10.30
2023-04-27T00:51:51.839Z,10.30
2023-04-27T00:54:22.025Z,10.30
2023-04-27T00:56:50.849Z,10.30
2023-04-27T00:59:19.072Z,10.30
2023-04-27T01:01:47.802Z,10.30
2023-04-27T01:04:16.947Z,10.20
2023-04-27T01:06:45.619Z,10.20
2023-04-27T01:09:16.415Z,10.20
2023-04-27T01:11:44.538Z,10.20
2023-04-27T01:14:12.564Z,10.20
2023-04-27T01:16:40.763Z,10.20
2023-04-27T01:19:11.016Z,10.20
2023-04-27T01:21:39.532Z,10.20
2023-04-27T01:24:10.000Z,10.20
2023-04-27T01:26:39.029Z,10.20
2023-04-27T01:29:06.890Z,10.20
2023-04-27T01:31:35.067Z,10.20
2023-04-27T01:34:03.713Z,10.20
2023-04-27T01:36:32.436Z,10.20
2023-04-27T01:39:00.336Z,10.20
2023-04-27T01:41:29.826Z,10.20
2023-04-27T01:43:57.649Z,10.10
2023-04-27T01:46:25.729Z,10.10
2023-04-27T01:48:53.642Z,10.10
2023-04-27T01:51:21.786Z,10.10
2023-04-27T01:53:50.214Z,10.00
2023-04-27T01:56:18.284Z,10.00
2023-04-27T01:58:47.499Z,10.00
2023-04-27T02:01:15.802Z,10.00
2023-04-27T02:03:43.865Z,9.90
2023-04-27T02:06:13.754Z,9.90
2023-04-27T02:08:41.747Z,9.80
2023-04-27T02:11:10.270Z,9.80
2023-04-27T02:13:38.409Z,9.80
2023-04-27T02:16:08.656Z,9.80
2023-04-27T02:18:36.755Z,9.70
2023-04-27T02:21:09.959Z,9.70
2023-04-27T02:23:38.111Z,9.70
2023-04-27T02:26:06.130Z,9.80
2023-04-27T02:28:34.246Z,9.70
2023-04-27T02:31:03.098Z,9.60
2023-04-27T02:33:33.090Z,9.70
2023-04-27T02:36:00.955Z,9.70
2023-04-27T02:38:30.840Z,9.70
2023-04-27T02:40:58.679Z,9.60
2023-04-27T02:43:27.627Z,9.70
2023-04-27T02:45:56.049Z,9.60
2023-04-27T02:48:24.301Z,9.70
2023-04-27T02:50:53.732Z,9.60
2023-04-27T02:53:21.738Z,9.70
2023-04-27T02:55:50.708Z,9.60
2023-04-27T02:58:18.729Z,9.60
2023-04-27T03:00:47.631Z,9.60
2023-04-27T03:03:17.053Z,9.60
2023-04-27T03:05:46.327Z,9.60
2023-04-27T03:08:16.077Z,9.60
2023-04-27T03:10:43.938Z,9.50
2023-04-27T03:13:12.106Z,9.50
2023-04-27T03:15:40.046Z,9.50
2023-04-27T03:18:08.213Z,9.50
2023-04-27T03:20:36.482Z,9.50
2023-04-27T03:23:04.821Z,9.50
2023-04-27T03:25:34.082Z,9.40
2023-04-27T03:28:02.162Z,9.40
2023-04-27T03:30:30.068Z,9.40
2023-04-27T03:32:58.981Z,9.40
2023-04-27T03:35:27.483Z,9.40
2023-04-27T03:37:55.657Z,9.40
2023-04-27T03:40:23.693Z,9.40
2023-04-27T03:42:53.164Z,9.50
2023-04-27T03:45:22.312Z,9.30
2023-04-27T03:47:51.319Z,9.30
2023-04-27T03:50:19.728Z,9.30
2023-04-27T03:52:47.809Z,9.30
2023-04-27T03:55:16.309Z,9.20
2023-04-27T03:57:44.439Z,9.20
2023-04-27T04:00:15.793Z,9.20
2023-04-27T04:02:43.971Z,9.10
2023-04-27T04:05:14.852Z,9.10
2023-04-27T04:07:43.583Z,9.10
2023-04-27T04:10:12.720Z,9.10
2023-04-27T04:12:41.258Z,9.00
2023-04-27T04:15:09.977Z,9.00
2023-04-27T04:17:40.020Z,9.00
2023-04-27T04:20:10.743Z,8.90
2023-04-27T04:22:39.172Z,8.90
2023-04-27T04:25:08.753Z,8.80
2023-04-27T04:27:37.344Z,8.80
2023-04-27T04:30:06.421Z,8.80
2023-04-27T04:32:37.681Z,8.70
2023-04-27T04:35:09.366Z,8.70
2023-04-27T04:37:37.705Z,8.70
2023-04-27T04:40:09.446Z,8.70
2023-04-27T04:42:38.482Z,8.70
2023-04-27T04:45:09.318Z,8.60
2023-04-27T04:47:37.338Z,8.60
2023-04-27T04:50:05.824Z,8.60
2023-04-27T04:52:35.029Z,8.60
2023-04-27T04:55:03.291Z,8.60
2023-04-27T04:57:31.934Z,8.60
2023-04-27T05:00:00.281Z,8.60
2023-04-27T05:02:28.452Z,8.70
2023-04-27T05:04:57.615Z,8.70
2023-04-27T05:07:25.995Z,8.70
2023-04-27T05:09:55.555Z,8.70
2023-04-27T05:12:23.867Z,8.80
2023-04-27T05:14:52.468Z,8.80
2023-04-27T05:17:20.647Z,8.80
2023-04-27T05:19:48.676Z,8.80
2023-04-27T05:22:16.584Z,8.80
2023-04-27T05:24:45.633Z,8.90
2023-04-27T05:27:15.342Z,8.90
2023-04-27T05:29:43.219Z,8.90
2023-04-27T05:32:11.467Z,8.90
2023-04-27T05:34:39.647Z,8.90
2023-04-27T05:37:07.573Z,9.00
2023-04-27T05:39:35.633Z,9.00
2023-04-27T05:42:03.721Z,9.00
2023-04-27T05:44:33.249Z,9.00
2023-04-27T05:47:01.219Z,9.10
2023-04-27T05:49:31.987Z,9.10
2023-04-27T05:52:01.058Z,9.20
2023-04-27T05:54:29.006Z,9.20
2023-04-27T05:56:57.074Z,9.20
2023-04-27T05:59:25.150Z,9.30
2023-04-27T06:01:54.463Z,9.30
2023-04-27T06:04:22.531Z,9.40
2023-04-27T06:06:50.649Z,9.40
2023-04-27T06:09:18.584Z,9.50
2023-04-27T06:11:47.553Z,9.50
2023-04-27T06:14:16.255Z,9.50
2023-04-27T06:16:44.333Z,9.60
2023-04-27T06:19:13.873Z,9.60
2023-04-27T06:21:41.958Z,9.60
2023-04-27T06:24:10.083Z,9.60
2023-04-27T06:26:38.074Z,9.70
2023-04-27T06:29:07.818Z,9.70
2023-04-27T06:31:36.055Z,9.70
2023-04-27T06:34:04.416Z,9.70
2023-04-27T06:36:34.012Z,9.80
2023-04-27T06:39:01.870Z,9.80
2023-04-27T06:41:30.061Z,9.80
2023-04-27T06:43:59.053Z,9.80
2023-04-27T06:46:27.473Z,9.90
2023-04-27T06:48:56.040Z,9.90
2023-04-27T06:51:23.921Z,9.90
2023-04-27T06:53:54.206Z,10.00
2023-04-27T06:56:22.388Z,10.00
2023-04-27T06:58:50.486Z,10.10
2023-04-27T07:01:18.696Z,10.10
2023-04-27T07:03:46.893Z,10.20
2023-04-27T07:06:15.008Z,10.20
2023-04-27T07:08:43.840Z,10.30
2023-04-27T07:11:13.286Z,10.40
2023-04-27T07:13:41.845Z,10.40
2023-04-27T07:16:10.004Z,10.50
2023-04-27T07:18:37.966Z,10.60
2023-04-27T07:21:05.879Z,10.60
2023-04-27T07:23:34.088Z,10.70
2023-04-27T07:26:02.803Z,10.70
2023-04-27T07:28:32.440Z,10.80
2023-04-27T07:31:00.376Z,10.80
2023-04-27T07:33:28.866Z,10.90
2023-04-27T07:35:57.060Z,11.00
2023-04-27T07:38:25.396Z,11.10
2023-04-27T07:40:54.646Z,11.10
2023-04-27T07:43:23.719Z,11.20
2023-04-27T07:45:54.541Z,11.30
2023-04-27T07:48:22.949Z,11.40
2023-04-27T07:50:51.115Z,11.50
2023-04-27T07:53:19.701Z,11.60
2023-04-27T07:55:47.690Z,11.70
2023-04-27T07:58:15.757Z,11.80
2023-04-27T08:00:43.673Z,11.80
2023-04-27T08:03:13.277Z,11.90
2023-04-27T08:05:41.512Z,12.00
2023-04-27T08:08:09.708Z,12.10
2023-04-27T08:10:38.136Z,12.20
2023-04-27T08:13:09.740Z,12.30
2023-04-27T08:15:37.749Z,12.30
2023-04-27T08:18:05.953Z,12.50
2023-04-27T08:20:35.696Z,12.60
2023-04-27T08:23:03.497Z,12.80
2023-04-27T08:25:31.510Z,13.20
2023-04-27T08:27:59.527Z,13.50
2023-04-27T08:30:27.470Z,14.10
2023-04-27T08:32:55.727Z,14.60
2023-04-27T08:35:23.866Z,15.20
2023-04-27T08:37:54.259Z,16.00
2023-04-27T08:40:24.866Z,16.80
2023-04-27T08:42:57.402Z,17.60
2023-04-27T08:45:26.593Z,18.50
2023-04-27T08:47:55.757Z,19.30
2023-04-27T08:50:24.306Z,20.10
2023-04-27T08:52:54.060Z,20.90
2023-04-27T08:55:22.161Z,21.60
2023-04-27T08:57:57.787Z,22.40
2023-04-27T09:00:26.810Z,23.20
2023-04-27T09:02:55.205Z,23.90
2023-04-27T09:05:24.540Z,24.70
2023-04-27T09:08:02.116Z,25.50
2023-04-27T09:10:30.431Z,26.30
2023-04-27T09:12:59.843Z,27.00
2023-04-27T09:15:28.683Z,27.70
2023-04-27T09:17:57.415Z,28.40
2023-04-27T09:20:27.011Z,29.00
2023-04-27T09:22:58.013Z,29.50
2023-04-27T09:25:32.431Z,30.10
2023-04-27T09:28:02.431Z,30.60
2023-04-27T09:30:31.057Z,31.10
2023-04-27T09:33:01.168Z,31.50
2023-04-27T09:35:31.380Z,31.90
2023-04-27T09:38:00.422Z,32.10
2023-04-27T09:40:31.523Z,32.40
2023-04-27T09:43:02.042Z,32.60
2023-04-27T09:45:30.622Z,32.80
2023-04-27T09:47:59.477Z,32.90
2023-04-27T09:50:27.612Z,33.00
2023-04-27T09:52:55.598Z,33.20
2023-04-27T09:55:28.162Z,33.30
2023-04-27T09:58:16.610Z,33.50
2023-04-27T10:00:56.728Z,33.60
2023-04-27T10:03:33.429Z,33.90
2023-04-27T10:06:47.061Z,34.10
2023-04-27T10:09:17.534Z,34.40
2023-04-27T10:11:47.809Z,34.50
2023-04-27T10:14:20.421Z,34.60
2023-04-27T10:16:51.937Z,34.70
2023-04-27T10:19:20.630Z,34.80
2023-04-27T10:21:57.754Z,35.00
2023-04-27T10:24:41.314Z,35.00
2023-04-27T10:27:11.301Z,34.90
2023-04-27T10:29:42.550Z,34.90
2023-04-27T10:32:12.875Z,34.80
2023-04-27T10:34:41.693Z,34.50
2023-04-27T10:37:11.781Z,34.10
2023-04-27T10:39:48.518Z,33.80
2023-04-27T10:42:28.486Z,33.60
2023-04-27T10:44:59.485Z,33.60
2023-04-27T10:47:39.362Z,33.70
2023-04-27T10:50:09.118Z,33.80
2023-04-27T10:52:37.365Z,34.00
2023-04-27T10:55:18.881Z,34.00
2023-04-27T10:57:49.269Z,33.80
2023-04-27T11:00:25.210Z,33.60
2023-04-27T11:02:54.750Z,33.00
2023-04-27T11:05:28.645Z,32.80
2023-04-27T11:08:07.025Z,32.70
2023-04-27T11:10:36.294Z,32.60
2023-04-27T11:13:11.418Z,32.40
2023-04-27T11:15:48.896Z,32.20
2023-04-27T11:18:18.990Z,31.90
2023-04-27T11:20:50.732Z,31.60
2023-04-27T11:23:26.295Z,31.40
2023-04-27T11:25:55.041Z,31.10
2023-04-27T11:28:23.990Z,30.80
2023-04-27T11:30:58.579Z,30.50
2023-04-27T11:33:26.896Z,30.30
2023-04-27T11:35:56.558Z,29.90
2023-04-27T11:38:25.144Z,29.60
2023-04-27T11:41:05.022Z,29.30
2023-04-27T11:43:33.870Z,28.80
2023-04-27T11:46:06.192Z,28.40
2023-04-27T11:48:34.123Z,28.00
2023-04-27T11:51:02.050Z,27.70
2023-04-27T11:53:32.049Z,27.30
2023-04-27T11:56:02.212Z,27.00
2023-04-27T11:58:30.960Z,26.70
2023-04-27T12:00:59.458Z,26.50
2023-04-27T12:03:29.616Z,26.30
2023-04-27T12:06:04.131Z,26.10
2023-04-27T12:08:40.178Z,26.00
2023-04-27T12:11:08.347Z,25.90
2023-04-27T12:13:36.201Z,25.80
2023-04-27T12:20:38.321Z,25.70
2023-04-27T12:23:06.665Z,25.80
2023-04-27T12:25:34.647Z,25.80
2023-04-27T12:28:02.538Z,25.90
2023-04-27T12:30:30.466Z,26.00
2023-04-27T12:33:00.237Z,26.20
2023-04-27T12:35:32.205Z,26.20
2023-04-27T12:38:02.075Z,26.20
2023-04-27T12:40:30.146Z,26.20
2023-04-27T12:43:00.930Z,26.20
2023-04-27T12:45:29.356Z,26.10
2023-04-27T12:48:02.498Z,25.90
2023-04-27T12:50:31.958Z,25.70
2023-04-27T12:53:01.436Z,25.40
2023-04-27T12:55:33.625Z,25.20
2023-04-27T12:58:04.846Z,25.20
2023-04-27T13:00:34.174Z,25.30
2023-04-27T13:03:02.251Z,25.50
2023-04-27T13:05:32.001Z,25.80
2023-04-27T13:08:01.673Z,26.20
2023-04-27T13:10:30.128Z,26.60
2023-04-27T13:12:59.497Z,26.80
2023-04-27T13:15:27.584Z,27.10
2023-04-27T13:17:56.674Z,27.30
2023-04-27T13:20:24.710Z,27.50
2023-04-27T13:22:52.677Z,27.60
2023-04-27T13:25:22.641Z,27.50
2023-04-27T13:27:51.549Z,27.40
2023-04-27T13:30:19.466Z,27.40
2023-04-27T13:32:47.412Z,27.40
2023-04-27T13:35:15.757Z,27.50
2023-04-27T13:37:44.017Z,27.60
2023-04-27T13:40:12.659Z,27.70
2023-04-27T13:42:41.926Z,27.80
2023-04-27T13:45:11.241Z,27.90
2023-04-27T13:47:40.221Z,28.00
2023-04-27T13:50:10.325Z,28.20
2023-04-27T13:52:39.540Z,28.40
2023-04-27T13:55:10.073Z,28.60
2023-04-27T13:57:38.932Z,28.60
2023-04-27T14:00:11.332Z,28.50
2023-04-27T14:02:41.782Z,28.30
2023-04-27T14:05:10.318Z,28.10
2023-04-27T14:07:38.247Z,27.80
2023-04-27T14:10:07.343Z,27.50
2023-04-27T14:12:35.761Z,27.20
2023-04-27T14:15:03.934Z,26.90
2023-04-27T14:17:33.186Z,26.60
2023-04-27T14:20:01.770Z,26.40
2023-04-27T14:22:31.448Z,26.30
2023-04-27T14:24:59.408Z,26.20
2023-04-27T14:27:27.535Z,26.10
2023-04-27T14:29:55.366Z,26.20
2023-04-27T14:32:23.399Z,26.30
2023-04-27T14:34:52.921Z,26.40
2023-04-27T14:37:20.768Z,26.50
2023-04-27T14:39:48.901Z,26.50
2023-04-27T14:42:16.943Z,26.50
2023-04-27T14:44:44.831Z,26.50
2023-04-27T14:47:12.825Z,26.40
2023-04-27T14:49:40.916Z,26.30
2023-04-27T14:52:10.296Z,26.20
2023-04-27T14:54:39.487Z,26.20
2023-04-27T14:57:07.389Z,26.20
2023-04-27T14:59:35.682Z,26.10
2023-04-27T15:02:04.755Z,26.10
2023-04-27T15:04:35.216Z,26.00
2023-04-27T15:07:03.545Z,26.00
2023-04-27T15:09:32.892Z,25.90
2023-04-27T15:12:01.853Z,25.80
2023-04-27T15:14:30.051Z,25.70
2023-04-27T15:16:57.934Z,25.60
2023-04-27T15:19:25.977Z,25.40
2023-04-27T15:21:54.075Z,25.30
2023-04-27T15:24:22.023Z,25.20
2023-04-27T15:26:51.589Z,25.10
2023-04-27T15:29:19.833Z,25.00
2023-04-27T15:31:48.499Z,24.90
2023-04-27T15:34:16.566Z,24.80
2023-04-27T15:36:44.646Z,24.70
2023-04-27T15:39:12.633Z,24.60
2023-04-27T15:41:41.572Z,24.60
2023-04-27T15:44:10.908Z,24.60
2023-04-27T15:46:39.018Z,24.60
2023-04-27T15:49:07.078Z,24.60
2023-04-27T15:51:35.018Z,24.60
2023-04-27T15:54:02.902Z,24.60
2023-04-27T15:56:31.009Z,24.60
2023-04-27T15:58:59.127Z,24.60
2023-04-27T16:01:28.867Z,24.60
2023-04-27T16:03:56.977Z,24.60
2023-04-27T16:06:31.643Z,24.60
2023-04-27T16:08:59.768Z,24.60
2023-04-27T16:11:27.641Z,24.60
2023-04-27T16:13:56.047Z,24.50
2023-04-27T16:16:24.374Z,24.40
2023-04-27T16:18:53.624Z,24.30
2023-04-27T16:21:21.684Z,24.30
2023-04-27T16:23:49.736Z,24.20
2023-04-27T16:26:17.942Z,24.10
2023-04-27T16:28:45.941Z,24.00
2023-04-27T16:31:14.667Z,23.90
2023-04-27T16:33:42.921Z,23.80
2023-04-27T16:36:12.727Z,23.70
2023-04-27T16:38:41.045Z,23.60
2023-04-27T16:41:08.887Z,23.50
2023-04-27T16:43:36.982Z,23.40
2023-04-27T16:46:05.113Z,23.30
2023-04-27T16:48:33.024Z,23.10
2023-04-27T16:51:01.296Z,23.00
2023-04-27T16:53:30.833Z,22.90
2023-04-27T16:56:00.734Z,22.80
2023-04-27T16:58:29.362Z,22.70
2023-04-27T17:00:58.014Z,22.60
2023-04-27T17:03:26.327Z,22.50
2023-04-27T17:05:54.681Z,22.40
2023-04-27T17:08:22.725Z,22.30
2023-04-27T17:10:54.016Z,22.20
2023-04-27T17:13:21.852Z,22.10
2023-04-27T17:15:51.312Z,22.00
2023-04-27T17:18:19.418Z,21.90
2023-04-27T17:20:47.366Z,21.80
2023-04-27T17:23:15.316Z,21.80
2023-04-27T17:25:43.164Z,21.70
2023-04-27T17:28:12.344Z,21.60
2023-04-27T17:30:41.844Z,21.50
2023-04-27T17:33:10.106Z,21.50
2023-04-27T17:35:38.160Z,21.50
2023-04-27T17:38:06.417Z,21.40
2023-04-27T17:40:34.239Z,21.30
2023-04-27T17:43:02.224Z,21.20
2023-04-27T17:45:31.997Z,21.10
2023-04-27T17:47:59.996Z,21.00
2023-04-27T17:50:29.331Z,21.00
2023-04-27T17:52:57.602Z,20.80
2023-04-27T17:55:25.800Z,20.70
2023-04-27T17:57:53.762Z,20.60
2023-04-27T18:00:23.499Z,20.50
2023-04-27T18:02:52.947Z,20.40
2023-04-27T18:05:21.180Z,20.30
2023-04-27T18:07:50.211Z,20.20
2023-04-27T18:10:18.506Z,20.10
2023-04-27T18:12:46.840Z,20.00
2023-04-27T18:15:14.656Z,19.90
2023-04-27T18:17:42.657Z,19.80
2023-04-27T18:20:12.837Z,19.80
2023-04-27T18:22:41.156Z,19.70
2023-04-27T18:25:10.668Z,19.60
2023-04-27T18:27:38.703Z,19.50
2023-04-27T18:30:08.290Z,19.40
2023-04-27T18:32:36.454Z,19.30
2023-04-27T18:35:05.758Z,19.20
2023-04-27T18:37:35.180Z,19.10
2023-04-27T18:40:05.798Z,19.00
2023-04-27T18:42:33.846Z,18.90
2023-04-27T18:45:01.859Z,18.80
2023-04-27T18:47:29.903Z,18.70
2023-04-27T18:49:57.819Z,18.60
2023-04-27T18:52:26.069Z,18.50
2023-04-27T18:54:55.504Z,18.40
2023-04-27T18:57:23.963Z,18.30
2023-04-27T18:59:52.241Z,18.20
2023-04-27T19:02:20.475Z,18.20
2023-04-27T19:04:57.053Z,18.10
2023-04-27T19:07:35.736Z,18.00
2023-04-27T19:10:05.594Z,17.90
2023-04-27T19:12:33.775Z,17.80
2023-04-27T19:15:01.931Z,17.70
2023-04-27T19:17:30.118Z,17.70
2023-04-27T19:19:58.678Z,17.60
2023-04-27T19:22:27.874Z,17.50
2023-04-27T19:24:56.070Z,17.40
2023-04-27T19:27:25.365Z,17.40
2023-04-27T19:29:54.381Z,17.30
2023-04-27T19:32:25.106Z,17.30
2023-04-27T19:34:53.392Z,17.20
2023-04-27T19:37:21.814Z,17.10
2023-04-27T19:39:49.764Z,17.10
2023-04-27T19:42:18.030Z,17.00
2023-04-27T19:44:47.258Z,17.00
2023-04-27T19:47:15.136Z,16.90
2023-04-27T19:49:43.054Z,16.90
2023-04-27T19:52:11.112Z,16.80
2023-04-27T19:54:39.059Z,16.80
2023-04-27T19:57:07.370Z,16.80
2023-04-27T19:59:35.428Z,16.70
2023-04-27T20:02:05.212Z,16.70
2023-04-27T20:04:33.518Z,16.70
2023-04-27T20:07:03.780Z,16.60
2023-04-27T20:09:33.073Z,16.60
2023-04-27T20:12:01.319Z,16.50
2023-04-27T20:14:33.708Z,16.60
2023-04-27T20:17:02.338Z,16.50
2023-04-27T20:19:32.168Z,16.50
2023-04-27T20:22:01.614Z,16.40
2023-04-27T20:24:31.110Z,16.40
2023-04-27T20:26:59.367Z,16.40
2023-04-27T20:29:27.445Z,16.40
2023-04-27T20:31:55.393Z,16.40
2023-04-27T20:34:23.492Z,16.40
2023-04-27T20:36:53.472Z,16.40
2023-04-27T20:39:24.117Z,16.40
2023-04-27T20:41:52.128Z,16.30
2023-04-27T20:44:20.671Z,16.30
2023-04-27T20:46:48.920Z,16.40
2023-04-27T20:49:24.644Z,16.30
2023-04-27T20:52:01.622Z,16.30
2023-04-27T20:54:31.275Z,16.20
2023-04-27T20:57:00.735Z,16.20
2023-04-27T20:59:28.744Z,16.20
2023-04-27T21:01:57.132Z,16.20
2023-04-27T21:04:25.295Z,16.10
2023-04-27T21:06:53.718Z,16.10
2023-04-27T21:09:22.956Z,16.10
2023-04-27T21:11:51.155Z,16.00
2023-04-27T21:14:19.260Z,16.00
2023-04-27T21:16:47.476Z,15.90
2023-04-27T21:19:16.514Z,15.90
2023-04-27T21:21:44.598Z,15.90
2023-04-27T21:24:12.405Z,15.80
2023-04-27T21:26:42.395Z,15.80
2023-04-27T21:29:10.450Z,15.80
2023-04-27T21:31:38.415Z,15.70
2023-04-27T21:34:06.670Z,15.70
2023-04-27T21:36:34.562Z,15.70
2023-04-27T21:39:02.482Z,15.70
2023-04-27T21:41:30.388Z,15.70
2023-04-27T21:43:59.706Z,15.70
2023-04-27T21:46:27.779Z,15.60
2023-04-27T21:48:55.992Z,15.60
2023-04-27T21:51:23.818Z,15.60
2023-04-27T21:53:51.718Z,15.60
2023-04-27T21:56:19.670Z,15.60
2023-04-27T21:58:47.642Z,15.60
2023-04-27T22:01:17.254Z,15.60
2023-04-27T22:03:45.476Z,15.60
2023-04-27T22:06:13.669Z,15.60
2023-04-27T22:08:41.623Z,15.60
2023-04-27T22:11:09.722Z,15.60
2023-04-27T22:13:37.624Z,15.60
2023-04-27T22:16:06.197Z,15.60
2023-04-27T22:18:35.614Z,15.60
2023-04-27T22:21:03.470Z,15.60
2023-04-27T22:23:31.683Z,15.60
2023-04-27T22:25:59.601Z,15.60
2023-04-27T22:28:27.727Z,15.60
2023-04-27T22:30:56.553Z,15.60
2023-04-27T22:33:24.428Z,15.60
2023-04-27T22:35:54.036Z,15.60
2023-04-27T22:38:22.104Z,15.60
2023-04-27T22:40:50.169Z,15.60
2023-04-27T22:43:18.262Z,15.60
2023-04-27T22:45:46.119Z,15.60
2023-04-27T22:48:14.198Z,15.50
2023-04-27T22:50:42.034Z,15.50
2023-04-27T22:53:11.391Z,15.50
2023-04-27T22:55:39.261Z,15.40
2023-04-27T22:58:07.286Z,15.40
2023-04-27T23:00:35.196Z,15.40
2023-04-27T23:03:03.288Z,15.40
2023-04-27T23:05:31.959Z,15.30
2023-04-27T23:07:59.798Z,15.30
2023-04-27T23:10:31.225Z,15.30
2023-04-27T23:13:01.298Z,15.30
2023-04-27T23:15:29.321Z,15.30
2023-04-27T23:17:57.411Z,15.20
2023-04-27T23:20:28.487Z,15.20
2023-04-27T23:22:57.129Z,15.40
2023-04-27T23:25:25.039Z,15.20
2023-04-27T23:27:54.488Z,15.20
2023-04-27T23:30:22.778Z,15.20
2023-04-27T23:32:50.888Z,15.20
2023-04-27T23:35:18.796Z,15.20
2023-04-27T23:37:46.979Z,15.20
2023-04-27T23:40:14.967Z,15.30
2023-04-27T23:42:43.119Z,15.30
2023-04-27T23:45:13.256Z,15.30
2023-04-27T23:47:41.441Z,15.30
2023-04-27T23:50:10.731Z,15.30
2023-04-27T23:52:38.654Z,15.20
2023-04-27T23:55:07.890Z,15.20
2023-04-27T23:57:35.777Z,15.20
